sensor_id;sensor_type;location;lat;lon;timestamp;P1;durP1;ratioP1;P2;durP2;ratioP2
51384;SDS011;37478;55.682;37.462;2023-07-13T00:00:46;3.08;;;2.65;;
51384;SDS011;37478;55.682;37.462;2023-07-13T00:03:12;3.17;;;2.30;;
51384;SDS011;37478;55.682;37.462;2023-07-13T00:05:38;4.13;;;3.25;;
51384;SDS011;37478;55.682;37.462;2023-07-13T00:08:03;8.75;;;3.95;;
51384;SDS011;37478;55.682;37.462;2023-07-13T00:10:29;3.97;;;2.38;;
51384;SDS011;37478;55.682;37.462;2023-07-13T00:12:54;4.35;;;3.05;;
51384;SDS011;37478;55.682;37.462;2023-07-13T00:15:21;4.32;;;2.67;;
51384;SDS011;37478;55.682;37.462;2023-07-13T00:17:54;4.82;;;3.00;;
51384;SDS011;37478;55.682;37.462;2023-07-13T00:20:20;4.90;;;2.50;;
51384;SDS011;37478;55.682;37.462;2023-07-13T00:22:50;6.22;;;3.15;;
51384;SDS011;37478;55.682;37.462;2023-07-13T00:25:16;4.38;;;2.85;;
51384;SDS011;37478;55.682;37.462;2023-07-13T00:27:42;4.43;;;3.05;;
51384;SDS011;37478;55.682;37.462;2023-07-13T00:30:08;3.97;;;2.60;;
51384;SDS011;37478;55.682;37.462;2023-07-13T00:32:34;7.55;;;3.13;;
51384;SDS011;37478;55.682;37.462;2023-07-13T00:35:00;7.45;;;3.10;;
51384;SDS011;37478;55.682;37.462;2023-07-13T00:37:25;5.43;;;2.85;;
51384;SDS011;37478;55.682;37.462;2023-07-13T00:39:50;2.92;;;2.05;;
51384;SDS011;37478;55.682;37.462;2023-07-13T00:42:16;3.95;;;2.90;;
51384;SDS011;37478;55.682;37.462;2023-07-13T00:44:41;4.40;;;3.00;;
51384;SDS011;37478;55.682;37.462;2023-07-13T00:47:06;6.32;;;3.60;;
51384;SDS011;37478;55.682;37.462;2023-07-13T00:49:32;4.72;;;2.97;;
51384;SDS011;37478;55.682;37.462;2023-07-13T00:51:59;4.75;;;3.17;;
51384;SDS011;37478;55.682;37.462;2023-07-13T00:54:31;9.30;;;3.10;;
51384;SDS011;37478;55.682;37.462;2023-07-13T00:56:58;3.55;;;2.72;;
51384;SDS011;37478;55.682;37.462;2023-07-13T00:59:24;5.65;;;2.65;;
51384;SDS011;37478;55.682;37.462;2023-07-13T01:01:50;6.65;;;3.75;;
51384;SDS011;37478;55.682;37.462;2023-07-13T01:04:16;4.03;;;3.05;;
51384;SDS011;37478;55.682;37.462;2023-07-13T01:06:41;3.95;;;3.05;;
51384;SDS011;37478;55.682;37.462;2023-07-13T01:09:09;5.13;;;2.85;;
51384;SDS011;37478;55.682;37.462;2023-07-13T01:11:35;3.75;;;2.50;;
51384;SDS011;37478;55.682;37.462;2023-07-13T01:14:00;7.82;;;3.22;;
51384;SDS011;37478;55.682;37.462;2023-07-13T01:16:30;4.97;;;2.80;;
51384;SDS011;37478;55.682;37.462;2023-07-13T01:18:55;3.78;;;2.90;;
51384;SDS011;37478;55.682;37.462;2023-07-13T01:21:24;5.82;;;2.88;;
51384;SDS011;37478;55.682;37.462;2023-07-13T01:23:49;5.85;;;2.72;;
51384;SDS011;37478;55.682;37.462;2023-07-13T01:26:15;6.30;;;3.55;;
51384;SDS011;37478;55.682;37.462;2023-07-13T01:28:40;7.10;;;3.30;;
51384;SDS011;37478;55.682;37.462;2023-07-13T01:31:06;5.03;;;3.03;;
51384;SDS011;37478;55.682;37.462;2023-07-13T01:33:31;3.85;;;2.80;;
51384;SDS011;37478;55.682;37.462;2023-07-13T01:35:57;6.35;;;3.20;;
51384;SDS011;37478;55.682;37.462;2023-07-13T01:38:23;4.40;;;3.30;;
51384;SDS011;37478;55.682;37.462;2023-07-13T01:40:49;5.50;;;3.13;;
51384;SDS011;37478;55.682;37.462;2023-07-13T01:43:14;4.95;;;2.97;;
51384;SDS011;37478;55.682;37.462;2023-07-13T01:45:40;3.30;;;2.55;;
51384;SDS011;37478;55.682;37.462;2023-07-13T01:48:05;6.85;;;3.50;;
51384;SDS011;37478;55.682;37.462;2023-07-13T01:50:32;4.90;;;3.13;;
51384;SDS011;37478;55.682;37.462;2023-07-13T01:52:57;5.78;;;2.97;;
51384;SDS011;37478;55.682;37.462;2023-07-13T01:55:22;5.38;;;3.47;;
51384;SDS011;37478;55.682;37.462;2023-07-13T01:57:48;5.68;;;3.33;;
51384;SDS011;37478;55.682;37.462;2023-07-13T02:00:13;6.07;;;3.28;;
51384;SDS011;37478;55.682;37.462;2023-07-13T02:02:39;5.80;;;3.10;;
51384;SDS011;37478;55.682;37.462;2023-07-13T02:05:04;4.45;;;3.05;;
51384;SDS011;37478;55.682;37.462;2023-07-13T02:07:30;4.80;;;3.10;;
51384;SDS011;37478;55.682;37.462;2023-07-13T02:09:55;7.60;;;4.38;;
51384;SDS011;37478;55.682;37.462;2023-07-13T02:12:20;4.40;;;3.42;;
51384;SDS011;37478;55.682;37.462;2023-07-13T02:14:45;4.10;;;3.47;;
51384;SDS011;37478;55.682;37.462;2023-07-13T02:17:11;5.85;;;3.72;;
51384;SDS011;37478;55.682;37.462;2023-07-13T02:19:36;4.68;;;2.88;;
51384;SDS011;37478;55.682;37.462;2023-07-13T02:22:02;4.47;;;3.13;;
51384;SDS011;37478;55.682;37.462;2023-07-13T02:24:27;7.53;;;3.97;;
51384;SDS011;37478;55.682;37.462;2023-07-13T02:26:52;4.38;;;3.15;;
51384;SDS011;37478;55.682;37.462;2023-07-13T02:29:18;5.45;;;3.20;;
51384;SDS011;37478;55.682;37.462;2023-07-13T02:31:43;5.88;;;2.92;;
51384;SDS011;37478;55.682;37.462;2023-07-13T02:34:08;5.00;;;3.05;;
51384;SDS011;37478;55.682;37.462;2023-07-13T02:36:34;5.80;;;3.17;;
51384;SDS011;37478;55.682;37.462;2023-07-13T02:39:00;4.40;;;3.67;;
51384;SDS011;37478;55.682;37.462;2023-07-13T02:41:26;4.95;;;2.97;;
51384;SDS011;37478;55.682;37.462;2023-07-13T02:43:51;5.35;;;3.33;;
51384;SDS011;37478;55.682;37.462;2023-07-13T02:46:17;4.10;;;3.05;;
51384;SDS011;37478;55.682;37.462;2023-07-13T02:48:44;10.80;;;3.28;;
51384;SDS011;37478;55.682;37.462;2023-07-13T02:51:09;6.18;;;3.28;;
51384;SDS011;37478;55.682;37.462;2023-07-13T02:53:35;6.70;;;3.10;;
51384;SDS011;37478;55.682;37.462;2023-07-13T02:56:01;4.70;;;3.13;;
51384;SDS011;37478;55.682;37.462;2023-07-13T02:58:26;6.45;;;2.90;;
51384;SDS011;37478;55.682;37.462;2023-07-13T03:00:51;5.55;;;3.20;;
51384;SDS011;37478;55.682;37.462;2023-07-13T03:03:17;7.22;;;3.40;;
51384;SDS011;37478;55.682;37.462;2023-07-13T03:05:43;6.85;;;3.58;;
51384;SDS011;37478;55.682;37.462;2023-07-13T03:08:10;5.78;;;3.08;;
51384;SDS011;37478;55.682;37.462;2023-07-13T03:10:35;14.55;;;3.92;;
51384;SDS011;37478;55.682;37.462;2023-07-13T03:13:00;5.30;;;4.10;;
51384;SDS011;37478;55.682;37.462;2023-07-13T03:15:26;5.90;;;3.92;;
51384;SDS011;37478;55.682;37.462;2023-07-13T03:17:51;4.95;;;3.05;;
51384;SDS011;37478;55.682;37.462;2023-07-13T03:20:17;5.68;;;3.67;;
51384;SDS011;37478;55.682;37.462;2023-07-13T03:22:42;6.03;;;3.30;;
51384;SDS011;37478;55.682;37.462;2023-07-13T03:25:07;5.03;;;3.47;;
51384;SDS011;37478;55.682;37.462;2023-07-13T03:27:33;3.88;;;3.00;;
51384;SDS011;37478;55.682;37.462;2023-07-13T03:29:58;4.45;;;3.30;;
51384;SDS011;37478;55.682;37.462;2023-07-13T03:32:23;6.15;;;3.10;;
51384;SDS011;37478;55.682;37.462;2023-07-13T03:34:49;4.55;;;3.25;;
51384;SDS011;37478;55.682;37.462;2023-07-13T03:37:14;6.35;;;3.80;;
51384;SDS011;37478;55.682;37.462;2023-07-13T03:39:39;5.07;;;3.13;;
51384;SDS011;37478;55.682;37.462;2023-07-13T03:42:05;3.70;;;2.67;;
51384;SDS011;37478;55.682;37.462;2023-07-13T03:44:30;4.68;;;2.90;;
51384;SDS011;37478;55.682;37.462;2023-07-13T03:46:55;7.07;;;2.95;;
51384;SDS011;37478;55.682;37.462;2023-07-13T03:49:21;6.38;;;3.53;;
51384;SDS011;37478;55.682;37.462;2023-07-13T03:51:46;5.18;;;3.78;;
51384;SDS011;37478;55.682;37.462;2023-07-13T03:54:11;5.13;;;3.13;;
51384;SDS011;37478;55.682;37.462;2023-07-13T03:56:36;5.82;;;3.58;;
51384;SDS011;37478;55.682;37.462;2023-07-13T03:59:02;4.32;;;3.05;;
51384;SDS011;37478;55.682;37.462;2023-07-13T04:01:27;6.47;;;3.50;;
51384;SDS011;37478;55.682;37.462;2023-07-13T04:03:53;5.95;;;3.50;;
51384;SDS011;37478;55.682;37.462;2023-07-13T04:06:19;7.95;;;3.65;;
51384;SDS011;37478;55.682;37.462;2023-07-13T04:08:46;7.07;;;3.60;;
51384;SDS011;37478;55.682;37.462;2023-07-13T04:11:12;7.82;;;3.58;;
51384;SDS011;37478;55.682;37.462;2023-07-13T04:13:37;6.28;;;3.47;;
51384;SDS011;37478;55.682;37.462;2023-07-13T04:16:02;4.93;;;3.10;;
51384;SDS011;37478;55.682;37.462;2023-07-13T04:18:28;4.38;;;3.35;;
51384;SDS011;37478;55.682;37.462;2023-07-13T04:20:53;5.60;;;3.30;;
51384;SDS011;37478;55.682;37.462;2023-07-13T04:23:18;5.60;;;3.45;;
51384;SDS011;37478;55.682;37.462;2023-07-13T04:25:47;4.95;;;3.20;;
51384;SDS011;37478;55.682;37.462;2023-07-13T04:28:14;6.68;;;3.22;;
51384;SDS011;37478;55.682;37.462;2023-07-13T04:30:40;5.28;;;3.20;;
51384;SDS011;37478;55.682;37.462;2023-07-13T04:33:05;4.82;;;3.58;;
51384;SDS011;37478;55.682;37.462;2023-07-13T04:35:31;8.82;;;3.58;;
51384;SDS011;37478;55.682;37.462;2023-07-13T04:37:56;6.07;;;3.20;;
51384;SDS011;37478;55.682;37.462;2023-07-13T04:40:22;6.75;;;2.85;;
51384;SDS011;37478;55.682;37.462;2023-07-13T04:42:47;5.22;;;3.20;;
51384;SDS011;37478;55.682;37.462;2023-07-13T04:45:13;7.93;;;3.22;;
51384;SDS011;37478;55.682;37.462;2023-07-13T04:47:38;5.93;;;3.22;;
51384;SDS011;37478;55.682;37.462;2023-07-13T04:50:04;8.77;;;4.75;;
51384;SDS011;37478;55.682;37.462;2023-07-13T04:52:29;6.18;;;3.63;;
51384;SDS011;37478;55.682;37.462;2023-07-13T04:54:54;4.88;;;2.55;;
51384;SDS011;37478;55.682;37.462;2023-07-13T04:57:20;4.72;;;2.97;;
51384;SDS011;37478;55.682;37.462;2023-07-13T04:59:45;6.00;;;2.83;;
51384;SDS011;37478;55.682;37.462;2023-07-13T05:02:10;5.90;;;3.95;;
51384;SDS011;37478;55.682;37.462;2023-07-13T05:04:36;5.68;;;2.88;;
51384;SDS011;37478;55.682;37.462;2023-07-13T05:07:01;7.97;;;3.03;;
51384;SDS011;37478;55.682;37.462;2023-07-13T05:09:26;5.00;;;2.70;;
51384;SDS011;37478;55.682;37.462;2023-07-13T05:11:52;3.97;;;2.83;;
51384;SDS011;37478;55.682;37.462;2023-07-13T05:14:17;6.53;;;3.80;;
51384;SDS011;37478;55.682;37.462;2023-07-13T05:16:42;5.78;;;2.92;;
51384;SDS011;37478;55.682;37.462;2023-07-13T05:19:08;7.55;;;3.15;;
51384;SDS011;37478;55.682;37.462;2023-07-13T05:21:33;5.65;;;3.28;;
51384;SDS011;37478;55.682;37.462;2023-07-13T05:23:59;4.18;;;3.10;;
51384;SDS011;37478;55.682;37.462;2023-07-13T05:26:24;7.50;;;3.58;;
51384;SDS011;37478;55.682;37.462;2023-07-13T05:28:49;4.75;;;3.65;;
51384;SDS011;37478;55.682;37.462;2023-07-13T05:31:15;5.05;;;2.80;;
51384;SDS011;37478;55.682;37.462;2023-07-13T05:33:40;4.63;;;3.15;;
51384;SDS011;37478;55.682;37.462;2023-07-13T05:36:05;7.78;;;4.20;;
51384;SDS011;37478;55.682;37.462;2023-07-13T05:38:32;7.07;;;3.72;;
51384;SDS011;37478;55.682;37.462;2023-07-13T05:40:57;4.13;;;3.00;;
51384;SDS011;37478;55.682;37.462;2023-07-13T05:43:23;4.60;;;2.88;;
51384;SDS011;37478;55.682;37.462;2023-07-13T05:45:48;6.32;;;3.50;;
51384;SDS011;37478;55.682;37.462;2023-07-13T05:48:14;4.20;;;2.75;;
51384;SDS011;37478;55.682;37.462;2023-07-13T05:50:39;5.95;;;2.88;;
51384;SDS011;37478;55.682;37.462;2023-07-13T05:53:05;5.47;;;2.95;;
51384;SDS011;37478;55.682;37.462;2023-07-13T05:55:30;4.28;;;2.85;;
51384;SDS011;37478;55.682;37.462;2023-07-13T05:57:55;9.20;;;3.40;;
51384;SDS011;37478;55.682;37.462;2023-07-13T06:00:23;3.90;;;2.85;;
51384;SDS011;37478;55.682;37.462;2023-07-13T06:02:48;8.20;;;2.83;;
51384;SDS011;37478;55.682;37.462;2023-07-13T06:05:14;5.13;;;2.72;;
51384;SDS011;37478;55.682;37.462;2023-07-13T06:07:39;3.42;;;2.83;;
51384;SDS011;37478;55.682;37.462;2023-07-13T06:10:04;2.88;;;2.22;;
51384;SDS011;37478;55.682;37.462;2023-07-13T06:12:30;3.10;;;2.25;;
51384;SDS011;37478;55.682;37.462;2023-07-13T06:14:55;7.93;;;3.40;;
51384;SDS011;37478;55.682;37.462;2023-07-13T06:17:20;4.55;;;2.40;;
51384;SDS011;37478;55.682;37.462;2023-07-13T06:19:46;4.00;;;2.92;;
51384;SDS011;37478;55.682;37.462;2023-07-13T06:22:11;4.10;;;2.90;;
51384;SDS011;37478;55.682;37.462;2023-07-13T06:24:36;6.13;;;3.03;;
51384;SDS011;37478;55.682;37.462;2023-07-13T06:27:02;8.68;;;3.10;;
51384;SDS011;37478;55.682;37.462;2023-07-13T06:29:27;5.28;;;3.10;;
51384;SDS011;37478;55.682;37.462;2023-07-13T06:31:53;5.45;;;2.72;;
51384;SDS011;37478;55.682;37.462;2023-07-13T06:34:18;4.10;;;2.70;;
51384;SDS011;37478;55.682;37.462;2023-07-13T06:36:44;12.52;;;3.30;;
51384;SDS011;37478;55.682;37.462;2023-07-13T06:39:09;9.52;;;3.20;;
51384;SDS011;37478;55.682;37.462;2023-07-13T06:41:34;3.63;;;2.25;;
51384;SDS011;37478;55.682;37.462;2023-07-13T06:44:00;3.95;;;2.88;;
51384;SDS011;37478;55.682;37.462;2023-07-13T06:46:25;5.68;;;2.60;;
51384;SDS011;37478;55.682;37.462;2023-07-13T06:48:50;8.00;;;2.80;;
51384;SDS011;37478;55.682;37.462;2023-07-13T06:51:16;4.80;;;2.65;;
51384;SDS011;37478;55.682;37.462;2023-07-13T06:53:41;3.30;;;2.40;;
51384;SDS011;37478;55.682;37.462;2023-07-13T06:56:09;4.75;;;2.72;;
51384;SDS011;37478;55.682;37.462;2023-07-13T06:58:35;3.53;;;2.15;;
51384;SDS011;37478;55.682;37.462;2023-07-13T07:01:00;2.33;;;2.13;;
51384;SDS011;37478;55.682;37.462;2023-07-13T07:03:26;6.05;;;2.83;;
51384;SDS011;37478;55.682;37.462;2023-07-13T07:05:51;3.38;;;2.47;;
51384;SDS011;37478;55.682;37.462;2023-07-13T07:08:16;4.85;;;2.60;;
51384;SDS011;37478;55.682;37.462;2023-07-13T07:10:42;6.57;;;2.35;;
51384;SDS011;37478;55.682;37.462;2023-07-13T07:13:07;5.43;;;2.85;;
51384;SDS011;37478;55.682;37.462;2023-07-13T07:15:34;8.63;;;2.95;;
51384;SDS011;37478;55.682;37.462;2023-07-13T07:17:59;7.63;;;2.97;;
51384;SDS011;37478;55.682;37.462;2023-07-13T07:20:24;3.75;;;2.20;;
51384;SDS011;37478;55.682;37.462;2023-07-13T07:22:50;3.15;;;2.55;;
51384;SDS011;37478;55.682;37.462;2023-07-13T07:25:15;3.55;;;2.63;;
51384;SDS011;37478;55.682;37.462;2023-07-13T07:27:40;5.68;;;3.00;;
51384;SDS011;37478;55.682;37.462;2023-07-13T07:30:06;4.45;;;2.53;;
51384;SDS011;37478;55.682;37.462;2023-07-13T07:32:31;4.85;;;3.08;;
51384;SDS011;37478;55.682;37.462;2023-07-13T07:34:57;5.68;;;3.22;;
51384;SDS011;37478;55.682;37.462;2023-07-13T07:37:22;4.15;;;2.70;;
51384;SDS011;37478;55.682;37.462;2023-07-13T07:39:48;4.65;;;2.75;;
51384;SDS011;37478;55.682;37.462;2023-07-13T07:42:13;9.57;;;3.30;;
51384;SDS011;37478;55.682;37.462;2023-07-13T07:44:39;5.50;;;3.25;;
51384;SDS011;37478;55.682;37.462;2023-07-13T07:47:05;6.95;;;3.90;;
51384;SDS011;37478;55.682;37.462;2023-07-13T07:49:30;4.05;;;2.90;;
51384;SDS011;37478;55.682;37.462;2023-07-13T07:51:56;7.68;;;3.08;;
51384;SDS011;37478;55.682;37.462;2023-07-13T07:54:21;5.32;;;3.00;;
51384;SDS011;37478;55.682;37.462;2023-07-13T07:56:46;5.15;;;2.55;;
51384;SDS011;37478;55.682;37.462;2023-07-13T07:59:12;6.03;;;3.10;;
51384;SDS011;37478;55.682;37.462;2023-07-13T08:01:37;4.38;;;3.08;;
51384;SDS011;37478;55.682;37.462;2023-07-13T08:04:02;8.68;;;3.40;;
51384;SDS011;37478;55.682;37.462;2023-07-13T08:06:28;6.05;;;2.80;;
51384;SDS011;37478;55.682;37.462;2023-07-13T08:08:54;5.35;;;2.35;;
51384;SDS011;37478;55.682;37.462;2023-07-13T08:11:19;9.35;;;2.65;;
51384;SDS011;37478;55.682;37.462;2023-07-13T08:13:45;5.63;;;2.75;;
51384;SDS011;37478;55.682;37.462;2023-07-13T08:16:10;4.38;;;2.92;;
51384;SDS011;37478;55.682;37.462;2023-07-13T08:18:36;6.35;;;2.60;;
51384;SDS011;37478;55.682;37.462;2023-07-13T08:21:05;4.20;;;2.67;;
51384;SDS011;37478;55.682;37.462;2023-07-13T08:23:30;4.60;;;2.55;;
51384;SDS011;37478;55.682;37.462;2023-07-13T08:25:56;4.00;;;2.78;;
51384;SDS011;37478;55.682;37.462;2023-07-13T08:28:22;3.58;;;2.50;;
51384;SDS011;37478;55.682;37.462;2023-07-13T08:30:47;3.25;;;2.50;;
51384;SDS011;37478;55.682;37.462;2023-07-13T08:33:17;5.28;;;2.72;;
51384;SDS011;37478;55.682;37.462;2023-07-13T08:35:45;3.40;;;2.60;;
51384;SDS011;37478;55.682;37.462;2023-07-13T08:38:10;5.63;;;2.90;;
51384;SDS011;37478;55.682;37.462;2023-07-13T08:40:35;4.57;;;2.60;;
51384;SDS011;37478;55.682;37.462;2023-07-13T08:43:01;4.20;;;2.97;;
51384;SDS011;37478;55.682;37.462;2023-07-13T08:48:49;4.75;;;2.80;;
51384;SDS011;37478;55.682;37.462;2023-07-13T08:51:22;5.22;;;3.47;;
51384;SDS011;37478;55.682;37.462;2023-07-13T08:53:50;5.75;;;3.38;;
51384;SDS011;37478;55.682;37.462;2023-07-13T08:56:21;3.28;;;2.53;;
51384;SDS011;37478;55.682;37.462;2023-07-13T08:58:47;6.43;;;2.88;;
51384;SDS011;37478;55.682;37.462;2023-07-13T09:04:26;5.10;;;3.33;;
51384;SDS011;37478;55.682;37.462;2023-07-13T09:06:27;4.93;;;3.17;;
51384;SDS011;37478;55.682;37.462;2023-07-13T09:08:58;5.03;;;3.63;;
51384;SDS011;37478;55.682;37.462;2023-07-13T09:16:22;5.88;;;4.57;;
51384;SDS011;37478;55.682;37.462;2023-07-13T09:18:48;7.13;;;3.10;;
51384;SDS011;37478;55.682;37.462;2023-07-13T09:21:15;9.98;;;3.92;;
51384;SDS011;37478;55.682;37.462;2023-07-13T09:23:42;4.10;;;3.28;;
51384;SDS011;37478;55.682;37.462;2023-07-13T09:28:43;6.80;;;3.80;;
51384;SDS011;37478;55.682;37.462;2023-07-13T09:33:47;7.07;;;4.38;;
51384;SDS011;37478;55.682;37.462;2023-07-13T09:38:43;11.45;;;4.75;;
51384;SDS011;37478;55.682;37.462;2023-07-13T09:41:23;8.00;;;4.22;;
51384;SDS011;37478;55.682;37.462;2023-07-13T09:44:09;8.50;;;4.55;;
51384;SDS011;37478;55.682;37.462;2023-07-13T09:46:35;6.05;;;3.88;;
51384;SDS011;37478;55.682;37.462;2023-07-13T09:49:00;9.27;;;4.40;;
51384;SDS011;37478;55.682;37.462;2023-07-13T09:51:25;7.55;;;4.25;;
51384;SDS011;37478;55.682;37.462;2023-07-13T09:53:51;11.63;;;4.82;;
51384;SDS011;37478;55.682;37.462;2023-07-13T09:56:20;6.47;;;4.18;;
51384;SDS011;37478;55.682;37.462;2023-07-13T09:58:46;8.43;;;4.35;;
51384;SDS011;37478;55.682;37.462;2023-07-13T10:01:11;8.80;;;4.20;;
51384;SDS011;37478;55.682;37.462;2023-07-13T10:03:37;5.38;;;3.50;;
51384;SDS011;37478;55.682;37.462;2023-07-13T10:06:36;7.65;;;4.13;;
51384;SDS011;37478;55.682;37.462;2023-07-13T10:08:55;5.95;;;4.22;;
51384;SDS011;37478;55.682;37.462;2023-07-13T10:11:23;5.97;;;4.10;;
51384;SDS011;37478;55.682;37.462;2023-07-13T10:16:24;6.72;;;4.43;;
51384;SDS011;37478;55.682;37.462;2023-07-13T10:18:51;7.72;;;4.70;;
51384;SDS011;37478;55.682;37.462;2023-07-13T10:21:19;5.85;;;3.67;;
51384;SDS011;37478;55.682;37.462;2023-07-13T10:23:50;4.90;;;3.85;;
51384;SDS011;37478;55.682;37.462;2023-07-13T10:26:18;7.38;;;4.13;;
51384;SDS011;37478;55.682;37.462;2023-07-13T10:28:46;5.43;;;3.50;;
51384;SDS011;37478;55.682;37.462;2023-07-13T10:31:13;6.70;;;3.92;;
51384;SDS011;37478;55.682;37.462;2023-07-13T10:33:39;7.05;;;4.10;;
51384;SDS011;37478;55.682;37.462;2023-07-13T10:38:37;5.63;;;4.05;;
51384;SDS011;37478;55.682;37.462;2023-07-13T10:41:04;6.82;;;3.80;;
51384;SDS011;37478;55.682;37.462;2023-07-13T10:43:34;9.55;;;5.00;;
51384;SDS011;37478;55.682;37.462;2023-07-13T10:46:02;7.28;;;4.30;;
51384;SDS011;37478;55.682;37.462;2023-07-13T10:48:28;5.30;;;4.13;;
51384;SDS011;37478;55.682;37.462;2023-07-13T10:50:57;8.10;;;4.32;;
51384;SDS011;37478;55.682;37.462;2023-07-13T10:53:29;10.57;;;4.28;;
51384;SDS011;37478;55.682;37.462;2023-07-13T10:55:59;10.07;;;4.22;;
51384;SDS011;37478;55.682;37.462;2023-07-13T10:58:41;8.15;;;4.25;;
51384;SDS011;37478;55.682;37.462;2023-07-13T11:03:59;9.55;;;5.03;;
51384;SDS011;37478;55.682;37.462;2023-07-13T11:08:54;7.00;;;4.57;;
51384;SDS011;37478;55.682;37.462;2023-07-13T11:16:32;9.35;;;4.85;;
51384;SDS011;37478;55.682;37.462;2023-07-13T11:21:27;7.63;;;4.32;;
51384;SDS011;37478;55.682;37.462;2023-07-13T11:24:03;12.18;;;4.80;;
51384;SDS011;37478;55.682;37.462;2023-07-13T11:31:52;6.20;;;3.50;;
51384;SDS011;37478;55.682;37.462;2023-07-13T11:34:18;7.40;;;4.38;;
51384;SDS011;37478;55.682;37.462;2023-07-13T11:36:46;6.80;;;4.03;;
51384;SDS011;37478;55.682;37.462;2023-07-13T11:39:19;6.25;;;3.85;;
51384;SDS011;37478;55.682;37.462;2023-07-13T11:41:53;7.97;;;4.57;;
51384;SDS011;37478;55.682;37.462;2023-07-13T11:44:22;5.40;;;3.92;;
51384;SDS011;37478;55.682;37.462;2023-07-13T11:46:52;8.05;;;4.55;;
51384;SDS011;37478;55.682;37.462;2023-07-13T11:49:19;7.07;;;4.18;;
51384;SDS011;37478;55.682;37.462;2023-07-13T11:51:44;5.50;;;3.65;;
51384;SDS011;37478;55.682;37.462;2023-07-13T11:54:31;4.88;;;3.60;;
51384;SDS011;37478;55.682;37.462;2023-07-13T11:56:57;5.82;;;3.67;;
51384;SDS011;37478;55.682;37.462;2023-07-13T11:59:25;9.55;;;4.50;;
51384;SDS011;37478;55.682;37.462;2023-07-13T12:01:51;5.50;;;4.15;;
51384;SDS011;37478;55.682;37.462;2023-07-13T12:06:54;3.67;;;3.13;;
51384;SDS011;37478;55.682;37.462;2023-07-13T12:09:19;12.20;;;3.55;;
51384;SDS011;37478;55.682;37.462;2023-07-13T12:11:50;6.07;;;3.60;;
51384;SDS011;37478;55.682;37.462;2023-07-13T12:14:16;6.32;;;3.75;;
51384;SDS011;37478;55.682;37.462;2023-07-13T12:16:42;6.10;;;3.83;;
51384;SDS011;37478;55.682;37.462;2023-07-13T12:19:14;8.32;;;3.90;;
51384;SDS011;37478;55.682;37.462;2023-07-13T12:21:41;5.78;;;3.70;;
51384;SDS011;37478;55.682;37.462;2023-07-13T12:24:13;6.20;;;3.60;;
51384;SDS011;37478;55.682;37.462;2023-07-13T12:38:36;11.77;;;4.45;;
51384;SDS011;37478;55.682;37.462;2023-07-13T12:41:02;5.63;;;3.90;;
51384;SDS011;37478;55.682;37.462;2023-07-13T12:43:28;6.78;;;4.05;;
51384;SDS011;37478;55.682;37.462;2023-07-13T12:45:58;11.75;;;4.30;;
51384;SDS011;37478;55.682;37.462;2023-07-13T12:48:24;8.02;;;4.47;;
51384;SDS011;37478;55.682;37.462;2023-07-13T12:50:50;7.35;;;4.25;;
51384;SDS011;37478;55.682;37.462;2023-07-13T12:53:20;7.30;;;3.70;;
51384;SDS011;37478;55.682;37.462;2023-07-13T12:55:46;6.43;;;4.25;;
51384;SDS011;37478;55.682;37.462;2023-07-13T12:58:25;7.40;;;4.85;;
51384;SDS011;37478;55.682;37.462;2023-07-13T13:00:51;8.30;;;4.63;;
51384;SDS011;37478;55.682;37.462;2023-07-13T13:05:44;8.23;;;4.25;;
51384;SDS011;37478;55.682;37.462;2023-07-13T13:08:11;5.03;;;4.10;;
51384;SDS011;37478;55.682;37.462;2023-07-13T13:10:36;6.28;;;4.20;;
51384;SDS011;37478;55.682;37.462;2023-07-13T13:13:02;13.52;;;4.15;;
51384;SDS011;37478;55.682;37.462;2023-07-13T13:15:28;6.65;;;4.38;;
51384;SDS011;37478;55.682;37.462;2023-07-13T13:17:55;6.57;;;3.70;;
51384;SDS011;37478;55.682;37.462;2023-07-13T13:20:20;6.20;;;4.00;;
51384;SDS011;37478;55.682;37.462;2023-07-13T13:22:46;7.78;;;4.35;;
51384;SDS011;37478;55.682;37.462;2023-07-13T13:25:12;6.40;;;3.60;;
51384;SDS011;37478;55.682;37.462;2023-07-13T13:27:41;11.70;;;4.18;;
51384;SDS011;37478;55.682;37.462;2023-07-13T13:30:15;9.82;;;3.80;;
51384;SDS011;37478;55.682;37.462;2023-07-13T13:32:41;7.25;;;4.05;;
51384;SDS011;37478;55.682;37.462;2023-07-13T13:35:16;5.75;;;4.05;;
51384;SDS011;37478;55.682;37.462;2023-07-13T13:37:42;6.18;;;4.03;;
51384;SDS011;37478;55.682;37.462;2023-07-13T13:42:39;8.27;;;3.88;;
51384;SDS011;37478;55.682;37.462;2023-07-13T13:45:04;6.88;;;3.67;;
51384;SDS011;37478;55.682;37.462;2023-07-13T13:47:30;5.70;;;4.10;;
51384;SDS011;37478;55.682;37.462;2023-07-13T13:49:57;6.30;;;3.20;;
51384;SDS011;37478;55.682;37.462;2023-07-13T13:52:23;9.18;;;3.50;;
51384;SDS011;37478;55.682;37.462;2023-07-13T13:54:48;5.60;;;3.60;;
51384;SDS011;37478;55.682;37.462;2023-07-13T13:57:13;6.95;;;3.83;;
51384;SDS011;37478;55.682;37.462;2023-07-13T13:59:39;7.40;;;4.38;;
51384;SDS011;37478;55.682;37.462;2023-07-13T14:02:28;6.00;;;3.63;;
51384;SDS011;37478;55.682;37.462;2023-07-13T14:05:02;5.65;;;3.05;;
51384;SDS011;37478;55.682;37.462;2023-07-13T14:07:28;7.20;;;3.60;;
51384;SDS011;37478;55.682;37.462;2023-07-13T14:09:58;6.53;;;3.60;;
51384;SDS011;37478;55.682;37.462;2023-07-13T14:12:24;6.43;;;4.10;;
51384;SDS011;37478;55.682;37.462;2023-07-13T14:14:53;5.35;;;3.75;;
51384;SDS011;37478;55.682;37.462;2023-07-13T14:17:20;6.38;;;3.53;;
51384;SDS011;37478;55.682;37.462;2023-07-13T14:19:47;8.82;;;3.55;;
51384;SDS011;37478;55.682;37.462;2023-07-13T14:22:15;6.60;;;3.53;;
51384;SDS011;37478;55.682;37.462;2023-07-13T14:24:41;5.18;;;3.55;;
51384;SDS011;37478;55.682;37.462;2023-07-13T14:27:07;6.53;;;3.60;;
51384;SDS011;37478;55.682;37.462;2023-07-13T14:29:33;5.55;;;3.30;;
51384;SDS011;37478;55.682;37.462;2023-07-13T14:31:58;6.93;;;3.92;;
51384;SDS011;37478;55.682;37.462;2023-07-13T14:34:24;7.40;;;4.15;;
51384;SDS011;37478;55.682;37.462;2023-07-13T14:36:49;8.20;;;3.90;;
51384;SDS011;37478;55.682;37.462;2023-07-13T14:39:16;6.03;;;3.88;;
51384;SDS011;37478;55.682;37.462;2023-07-13T14:41:42;8.57;;;4.07;;
51384;SDS011;37478;55.682;37.462;2023-07-13T14:44:17;12.15;;;3.88;;
51384;SDS011;37478;55.682;37.462;2023-07-13T14:46:43;4.90;;;3.50;;
51384;SDS011;37478;55.682;37.462;2023-07-13T14:49:12;7.68;;;4.20;;
51384;SDS011;37478;55.682;37.462;2023-07-13T14:51:39;6.20;;;4.10;;
51384;SDS011;37478;55.682;37.462;2023-07-13T14:54:05;5.80;;;4.05;;
51384;SDS011;37478;55.682;37.462;2023-07-13T14:56:30;8.00;;;4.35;;
51384;SDS011;37478;55.682;37.462;2023-07-13T14:58:55;7.97;;;4.30;;
51384;SDS011;37478;55.682;37.462;2023-07-13T15:01:21;11.93;;;3.97;;
51384;SDS011;37478;55.682;37.462;2023-07-13T15:03:48;6.85;;;3.97;;
51384;SDS011;37478;55.682;37.462;2023-07-13T15:06:13;4.72;;;4.15;;
51384;SDS011;37478;55.682;37.462;2023-07-13T15:08:39;8.57;;;4.35;;
51384;SDS011;37478;55.682;37.462;2023-07-13T15:11:07;7.32;;;3.95;;
51384;SDS011;37478;55.682;37.462;2023-07-13T15:13:33;9.57;;;4.57;;
51384;SDS011;37478;55.682;37.462;2023-07-13T15:15:59;6.53;;;4.43;;
51384;SDS011;37478;55.682;37.462;2023-07-13T15:18:25;6.07;;;4.53;;
51384;SDS011;37478;55.682;37.462;2023-07-13T15:20:51;6.85;;;4.07;;
51384;SDS011;37478;55.682;37.462;2023-07-13T15:23:20;7.43;;;4.10;;
51384;SDS011;37478;55.682;37.462;2023-07-13T15:25:47;6.13;;;4.30;;
51384;SDS011;37478;55.682;37.462;2023-07-13T15:28:13;8.82;;;4.32;;
51384;SDS011;37478;55.682;37.462;2023-07-13T15:30:41;6.25;;;3.55;;